Milan, Italy
Current Conditions -  °F | °C
As of 11:20 AM on Thursday 29 Jan 2015 (Local Time) from LIML Reporting Station
Broken Clouds Broken Clouds  
Wind Chill: 37°   Ceiling: 4500
Heat Index: 37°   Visibility: 6mi
Dew Point: 30°   Wind: 2mph
Humidity: 75%   Direction: NA
Pressure: 29.59"   Gusts: NA
Location:  45.46°N, 9.19°E
Report Text: LIML 291020Z VRB02KT 9999 BKN045 03/M01 Q1002 NOSIG
Loading
Personal Weather Stations






























Interactive Weather Map New forecast layout! Learn more

10-Day Weather Forecast

Advertisements
Track Severe Weather on mobile